< < Back
Terminal Aerodrome Forecast


Current Version              Previous Versions:   1  2  3  4  5  6  7  8  9  

Terminal Aerodrome Forecast

909
FTUS44 KOHX 301001 AAB
TAFBNA
TAF AMD
KBNA 301001Z 3010/3106 00000KT P6SM BKN250
     FM301200 01002KT 3SM BR FEW120
     FM301300 01009KT P6SM SCT250=

Latest METAR

269
SAUS70 KWBC 302200
MTRBNA
METAR KBNA 302153Z 04008KT 10SM SCT070 32/13 A2998 RMK AO2 SLP144
T03170128


USA.gov is the U.S. government's official web portal to all federal, state and local government web resources and services.